sensor_id;sensor_type;location;lat;lon;timestamp;pressure;altitude;pressure_sealevel;temperature;humidity
3748;BME280;1889;50.058;8.688;2022-07-29T00:00:06;100049.34;;;23.23;41.06
3748;BME280;1889;50.058;8.688;2022-07-29T00:02:36;100051.44;;;23.25;41.05
3748;BME280;1889;50.058;8.688;2022-07-29T00:05:05;100059.24;;;23.10;41.16
3748;BME280;1889;50.058;8.688;2022-07-29T00:07:34;100055.20;;;22.85;41.50
3748;BME280;1889;50.058;8.688;2022-07-29T00:10:04;100061.77;;;22.93;41.50
3748;BME280;1889;50.058;8.688;2022-07-29T00:12:33;100070.46;;;23.09;41.02
3748;BME280;1889;50.058;8.688;2022-07-29T00:15:04;100091.61;;;23.14;40.90
3748;BME280;1889;50.058;8.688;2022-07-29T00:17:33;100086.45;;;23.24;40.75
3748;BME280;1889;50.058;8.688;2022-07-29T00:20:02;100089.89;;;23.13;41.13
3748;BME280;1889;50.058;8.688;2022-07-29T00:22:31;100087.36;;;23.04;41.32
3748;BME280;1889;50.058;8.688;2022-07-29T00:25:00;100090.91;;;22.92;41.76
3748;BME280;1889;50.058;8.688;2022-07-29T00:27:29;100094.06;;;22.72;42.53
3748;BME280;1889;50.058;8.688;2022-07-29T00:29:58;100092.80;;;22.58;43.14
3748;BME280;1889;50.058;8.688;2022-07-29T00:32:27;100099.98;;;22.57;42.79
3748;BME280;1889;50.058;8.688;2022-07-29T00:34:56;100103.39;;;22.46;42.66
3748;BME280;1889;50.058;8.688;2022-07-29T00:37:43;100103.59;;;22.63;42.01
3748;BME280;1889;50.058;8.688;2022-07-29T00:40:12;100098.16;;;22.45;42.06
3748;BME280;1889;50.058;8.688;2022-07-29T00:42:44;100105.64;;;22.60;41.67
3748;BME280;1889;50.058;8.688;2022-07-29T00:45:13;100102.91;;;22.47;41.51
3748;BME280;1889;50.058;8.688;2022-07-29T00:47:43;100093.33;;;22.50;41.30
3748;BME280;1889;50.058;8.688;2022-07-29T00:50:13;100098.63;;;22.44;40.70
3748;BME280;1889;50.058;8.688;2022-07-29T00:52:43;100097.36;;;22.63;40.62
3748;BME280;1889;50.058;8.688;2022-07-29T00:55:14;100090.63;;;22.77;40.36
3748;BME280;1889;50.058;8.688;2022-07-29T00:57:44;100088.28;;;22.85;39.85
3748;BME280;1889;50.058;8.688;2022-07-29T01:00:24;100090.83;;;22.87;39.72
3748;BME280;1889;50.058;8.688;2022-07-29T01:02:46;100093.84;;;22.95;39.52
3748;BME280;1889;50.058;8.688;2022-07-29T01:05:20;100078.59;;;22.95;39.04
3748;BME280;1889;50.058;8.688;2022-07-29T01:07:52;100074.41;;;23.04;38.96
3748;BME280;1889;50.058;8.688;2022-07-29T01:10:23;100074.59;;;23.08;38.76
3748;BME280;1889;50.058;8.688;2022-07-29T01:12:55;100074.26;;;23.12;38.57
3748;BME280;1889;50.058;8.688;2022-07-29T01:15:25;100068.78;;;23.14;38.47
3748;BME280;1889;50.058;8.688;2022-07-29T01:18:04;100061.48;;;23.16;38.43
3748;BME280;1889;50.058;8.688;2022-07-29T01:23:40;100055.36;;;23.14;38.70
3748;BME280;1889;50.058;8.688;2022-07-29T01:29:01;100052.23;;;23.20;38.05
3748;BME280;1889;50.058;8.688;2022-07-29T01:37:11;100041.86;;;23.21;37.86
3748;BME280;1889;50.058;8.688;2022-07-29T01:39:36;100040.03;;;23.21;37.72
3748;BME280;1889;50.058;8.688;2022-07-29T01:42:23;100030.43;;;23.25;37.69
3748;BME280;1889;50.058;8.688;2022-07-29T01:48:04;100024.34;;;23.28;37.56
3748;BME280;1889;50.058;8.688;2022-07-29T01:50:40;100029.70;;;23.28;37.56
3748;BME280;1889;50.058;8.688;2022-07-29T01:53:09;100025.54;;;23.24;37.70
3748;BME280;1889;50.058;8.688;2022-07-29T01:55:42;100035.59;;;23.15;38.01
3748;BME280;1889;50.058;8.688;2022-07-29T01:58:12;100039.47;;;22.98;38.28
3748;BME280;1889;50.058;8.688;2022-07-29T02:00:43;100037.44;;;23.02;38.37
3748;BME280;1889;50.058;8.688;2022-07-29T02:03:15;100036.58;;;23.01;38.32
3748;BME280;1889;50.058;8.688;2022-07-29T02:05:47;100027.05;;;23.03;38.46
3748;BME280;1889;50.058;8.688;2022-07-29T02:08:17;100033.35;;;23.09;38.33
3748;BME280;1889;50.058;8.688;2022-07-29T02:10:48;100029.70;;;23.10;38.32
3748;BME280;1889;50.058;8.688;2022-07-29T02:13:21;100030.91;;;23.11;38.77
3748;BME280;1889;50.058;8.688;2022-07-29T02:15:53;100030.05;;;23.11;38.53
3748;BME280;1889;50.058;8.688;2022-07-29T02:18:24;100025.78;;;23.08;38.70
3748;BME280;1889;50.058;8.688;2022-07-29T02:20:56;100027.70;;;23.06;38.76
3748;BME280;1889;50.058;8.688;2022-07-29T02:23:27;100034.31;;;23.08;38.81
3748;BME280;1889;50.058;8.688;2022-07-29T02:25:57;100038.83;;;23.07;38.87
3748;BME280;1889;50.058;8.688;2022-07-29T02:28:29;100043.75;;;22.88;39.47
3748;BME280;1889;50.058;8.688;2022-07-29T02:31:01;100038.08;;;22.93;39.39
3748;BME280;1889;50.058;8.688;2022-07-29T02:33:32;100032.05;;;22.89;39.55
3748;BME280;1889;50.058;8.688;2022-07-29T02:36:02;100032.33;;;22.92;39.75
3748;BME280;1889;50.058;8.688;2022-07-29T02:38:32;100030.48;;;22.79;40.16
3748;BME280;1889;50.058;8.688;2022-07-29T02:41:37;100026.55;;;22.85;40.05
3748;BME280;1889;50.058;8.688;2022-07-29T02:44:10;100024.72;;;22.86;40.20
3748;BME280;1889;50.058;8.688;2022-07-29T02:46:57;100023.14;;;22.89;40.17
3748;BME280;1889;50.058;8.688;2022-07-29T02:49:47;100021.90;;;22.87;40.34
3748;BME280;1889;50.058;8.688;2022-07-29T02:52:27;100020.84;;;22.90;40.46
3748;BME280;1889;50.058;8.688;2022-07-29T02:55:07;100019.22;;;22.87;40.63
3748;BME280;1889;50.058;8.688;2022-07-29T02:57:57;100018.69;;;22.82;40.77
3748;BME280;1889;50.058;8.688;2022-07-29T03:00:27;100007.95;;;22.82;40.90
3748;BME280;1889;50.058;8.688;2022-07-29T03:02:59;100004.41;;;22.81;41.07
3748;BME280;1889;50.058;8.688;2022-07-29T03:05:29;100007.58;;;22.81;41.12
3748;BME280;1889;50.058;8.688;2022-07-29T03:08:02;100012.42;;;22.76;41.33
3748;BME280;1889;50.058;8.688;2022-07-29T03:10:32;100012.11;;;22.73;41.46
3748;BME280;1889;50.058;8.688;2022-07-29T03:13:01;100019.53;;;22.70;41.69
3748;BME280;1889;50.058;8.688;2022-07-29T03:15:31;100017.52;;;22.66;41.81
3748;BME280;1889;50.058;8.688;2022-07-29T03:18:00;100017.58;;;22.59;42.04
3748;BME280;1889;50.058;8.688;2022-07-29T03:20:30;100011.93;;;22.57;42.19
3748;BME280;1889;50.058;8.688;2022-07-29T03:22:59;100019.75;;;22.47;42.52
3748;BME280;1889;50.058;8.688;2022-07-29T03:25:28;100021.09;;;22.47;42.58
3748;BME280;1889;50.058;8.688;2022-07-29T03:27:57;100023.57;;;22.50;42.67
3748;BME280;1889;50.058;8.688;2022-07-29T03:30:26;100021.84;;;22.49;42.75
3748;BME280;1889;50.058;8.688;2022-07-29T03:32:57;100019.92;;;22.51;42.83
3748;BME280;1889;50.058;8.688;2022-07-29T03:35:26;100013.03;;;22.34;43.76
3748;BME280;1889;50.058;8.688;2022-07-29T03:37:55;100009.48;;;22.34;43.64
3748;BME280;1889;50.058;8.688;2022-07-29T03:40:32;100004.98;;;22.34;43.67
3748;BME280;1889;50.058;8.688;2022-07-29T03:43:02;100006.42;;;22.33;43.66
3748;BME280;1889;50.058;8.688;2022-07-29T03:45:33;100001.64;;;22.31;43.64
3748;BME280;1889;50.058;8.688;2022-07-29T03:48:06;100007.81;;;22.26;43.99
3748;BME280;1889;50.058;8.688;2022-07-29T03:50:35;100015.95;;;22.24;43.86
3748;BME280;1889;50.058;8.688;2022-07-29T03:53:04;100011.06;;;22.24;43.95
3748;BME280;1889;50.058;8.688;2022-07-29T03:55:41;100011.87;;;22.19;44.00
3748;BME280;1889;50.058;8.688;2022-07-29T03:58:13;100008.14;;;22.14;44.37
3748;BME280;1889;50.058;8.688;2022-07-29T04:00:42;100009.17;;;21.99;44.66
3748;BME280;1889;50.058;8.688;2022-07-29T04:03:12;100005.72;;;22.04;44.59
3748;BME280;1889;50.058;8.688;2022-07-29T04:05:42;100000.94;;;22.02;44.65
3748;BME280;1889;50.058;8.688;2022-07-29T04:08:11;100000.08;;;21.94;44.98
3748;BME280;1889;50.058;8.688;2022-07-29T04:10:40;100006.48;;;21.92;44.98
3748;BME280;1889;50.058;8.688;2022-07-29T04:13:09;100015.80;;;21.86;45.19
3748;BME280;1889;50.058;8.688;2022-07-29T04:15:38;100011.20;;;21.81;45.41
3748;BME280;1889;50.058;8.688;2022-07-29T04:18:07;100010.16;;;21.84;45.39
3748;BME280;1889;50.058;8.688;2022-07-29T04:20:36;100014.17;;;21.84;45.32
3748;BME280;1889;50.058;8.688;2022-07-29T04:23:05;100008.91;;;21.82;45.33
3748;BME280;1889;50.058;8.688;2022-07-29T04:25:41;100012.30;;;21.79;45.34
3748;BME280;1889;50.058;8.688;2022-07-29T04:28:10;100004.64;;;21.80;45.22
3748;BME280;1889;50.058;8.688;2022-07-29T04:30:39;100004.64;;;21.80;45.10
3748;BME280;1889;50.058;8.688;2022-07-29T04:33:08;100008.84;;;21.77;45.10
3748;BME280;1889;50.058;8.688;2022-07-29T04:35:38;100011.34;;;21.80;44.94
3748;BME280;1889;50.058;8.688;2022-07-29T04:38:07;100010.95;;;21.79;45.08
3748;BME280;1889;50.058;8.688;2022-07-29T04:40:36;100010.19;;;21.77;45.05
3748;BME280;1889;50.058;8.688;2022-07-29T04:43:05;100008.84;;;21.77;44.87
3748;BME280;1889;50.058;8.688;2022-07-29T04:45:34;100014.87;;;21.73;44.93
3748;BME280;1889;50.058;8.688;2022-07-29T04:48:03;100010.84;;;21.73;44.95
3748;BME280;1889;50.058;8.688;2022-07-29T04:50:33;100011.71;;;21.74;44.92
3748;BME280;1889;50.058;8.688;2022-07-29T04:53:02;100014.13;;;21.71;45.05
3748;BME280;1889;50.058;8.688;2022-07-29T04:55:31;100007.82;;;21.72;44.80
3748;BME280;1889;50.058;8.688;2022-07-29T04:58:00;100005.69;;;21.77;44.83
3748;BME280;1889;50.058;8.688;2022-07-29T05:00:29;100006.70;;;21.82;44.69
3748;BME280;1889;50.058;8.688;2022-07-29T05:02:58;100001.55;;;21.86;44.63
3748;BME280;1889;50.058;8.688;2022-07-29T05:05:27;100004.58;;;21.94;44.40
3748;BME280;1889;50.058;8.688;2022-07-29T05:07:56;100008.31;;;21.98;44.39
3748;BME280;1889;50.058;8.688;2022-07-29T05:10:25;100009.08;;;22.00;44.34
3748;BME280;1889;50.058;8.688;2022-07-29T05:12:54;100019.09;;;22.11;43.96
3748;BME280;1889;50.058;8.688;2022-07-29T05:15:23;100014.11;;;22.12;43.93
3748;BME280;1889;50.058;8.688;2022-07-29T05:17:53;100016.09;;;22.16;44.23
3748;BME280;1889;50.058;8.688;2022-07-29T05:20:22;100017.17;;;22.13;44.17
3748;BME280;1889;50.058;8.688;2022-07-29T05:22:52;100011.30;;;22.21;44.19
3748;BME280;1889;50.058;8.688;2022-07-29T05:25:21;100019.61;;;22.03;44.00
3748;BME280;1889;50.058;8.688;2022-07-29T05:27:50;100022.92;;;22.07;44.10
3748;BME280;1889;50.058;8.688;2022-07-29T05:30:20;100026.62;;;22.19;43.74
3748;BME280;1889;50.058;8.688;2022-07-29T05:32:49;100031.19;;;22.04;43.95
3748;BME280;1889;50.058;8.688;2022-07-29T05:35:18;100026.33;;;22.16;43.82
3748;BME280;1889;50.058;8.688;2022-07-29T05:37:47;100030.48;;;22.07;43.89
3748;BME280;1889;50.058;8.688;2022-07-29T05:40:16;100037.83;;;22.18;44.04
3748;BME280;1889;50.058;8.688;2022-07-29T05:42:47;100029.23;;;22.13;43.93
3748;BME280;1889;50.058;8.688;2022-07-29T05:45:16;100028.50;;;22.24;43.85
3748;BME280;1889;50.058;8.688;2022-07-29T05:47:45;100024.66;;;22.28;44.01
3748;BME280;1889;50.058;8.688;2022-07-29T05:50:14;100022.16;;;22.12;44.03
3748;BME280;1889;50.058;8.688;2022-07-29T05:52:45;100027.34;;;22.28;43.90
3748;BME280;1889;50.058;8.688;2022-07-29T05:55:14;100027.94;;;22.38;43.75
3748;BME280;1889;50.058;8.688;2022-07-29T05:57:43;100032.04;;;22.24;43.89
3748;BME280;1889;50.058;8.688;2022-07-29T06:00:13;100031.33;;;22.35;43.81
3748;BME280;1889;50.058;8.688;2022-07-29T06:02:42;100037.78;;;22.25;43.77
3748;BME280;1889;50.058;8.688;2022-07-29T06:05:11;100039.66;;;22.37;43.51
3748;BME280;1889;50.058;8.688;2022-07-29T06:07:40;100038.95;;;22.41;43.25
3748;BME280;1889;50.058;8.688;2022-07-29T06:10:09;100030.84;;;22.35;43.39
3748;BME280;1889;50.058;8.688;2022-07-29T06:12:38;100042.59;;;22.60;42.95
3748;BME280;1889;50.058;8.688;2022-07-29T06:15:08;100036.21;;;22.68;42.71
3748;BME280;1889;50.058;8.688;2022-07-29T06:17:37;100040.59;;;22.76;42.70
3748;BME280;1889;50.058;8.688;2022-07-29T06:20:06;100034.75;;;22.76;42.69
3748;BME280;1889;50.058;8.688;2022-07-29T06:22:35;100036.04;;;22.83;42.30
3748;BME280;1889;50.058;8.688;2022-07-29T06:25:05;100038.81;;;22.95;42.30
3748;BME280;1889;50.058;8.688;2022-07-29T06:27:34;100034.68;;;22.96;42.04
3748;BME280;1889;50.058;8.688;2022-07-29T06:30:03;100037.69;;;23.04;41.81
3748;BME280;1889;50.058;8.688;2022-07-29T06:32:35;100037.92;;;23.01;41.76
3748;BME280;1889;50.058;8.688;2022-07-29T06:35:05;100040.47;;;23.03;41.58
3748;BME280;1889;50.058;8.688;2022-07-29T06:37:34;100037.76;;;22.85;41.92
3748;BME280;1889;50.058;8.688;2022-07-29T06:40:04;100033.41;;;23.02;41.67
3748;BME280;1889;50.058;8.688;2022-07-29T06:42:51;100032.25;;;23.11;41.67
3748;BME280;1889;50.058;8.688;2022-07-29T06:45:20;100034.84;;;23.13;41.83
3748;BME280;1889;50.058;8.688;2022-07-29T06:47:49;100036.59;;;23.19;41.52
3748;BME280;1889;50.058;8.688;2022-07-29T06:50:18;100035.94;;;23.10;41.71
3748;BME280;1889;50.058;8.688;2022-07-29T06:52:47;100034.77;;;23.33;41.36
3748;BME280;1889;50.058;8.688;2022-07-29T06:55:17;100035.70;;;23.44;40.69
3748;BME280;1889;50.058;8.688;2022-07-29T06:57:47;100039.45;;;23.49;40.71
3748;BME280;1889;50.058;8.688;2022-07-29T07:00:16;100040.34;;;23.42;40.54
3748;BME280;1889;50.058;8.688;2022-07-29T07:02:45;100047.56;;;23.60;40.59
3748;BME280;1889;50.058;8.688;2022-07-29T07:05:14;100040.72;;;23.56;40.39
3748;BME280;1889;50.058;8.688;2022-07-29T07:07:43;100040.00;;;23.16;40.58
3748;BME280;1889;50.058;8.688;2022-07-29T07:10:12;100051.66;;;22.84;41.12
3748;BME280;1889;50.058;8.688;2022-07-29T07:12:41;100060.83;;;23.12;41.08
3748;BME280;1889;50.058;8.688;2022-07-29T07:15:10;100054.27;;;23.42;40.53
3748;BME280;1889;50.058;8.688;2022-07-29T07:17:39;100057.91;;;23.41;40.53
3748;BME280;1889;50.058;8.688;2022-07-29T07:20:08;100063.73;;;23.35;40.23
3748;BME280;1889;50.058;8.688;2022-07-29T07:22:37;100062.33;;;23.42;40.09
3748;BME280;1889;50.058;8.688;2022-07-29T07:25:07;100062.62;;;23.63;39.87
3748;BME280;1889;50.058;8.688;2022-07-29T07:27:36;100060.70;;;23.52;40.11
3748;BME280;1889;50.058;8.688;2022-07-29T07:30:07;100061.61;;;23.76;39.92
3748;BME280;1889;50.058;8.688;2022-07-29T07:32:36;100066.06;;;23.65;39.99
3748;BME280;1889;50.058;8.688;2022-07-29T07:35:07;100059.62;;;23.67;40.22
3748;BME280;1889;50.058;8.688;2022-07-29T07:37:37;100063.02;;;23.38;40.34
3748;BME280;1889;50.058;8.688;2022-07-29T07:40:09;100064.41;;;23.56;40.42
3748;BME280;1889;50.058;8.688;2022-07-29T07:42:41;100059.21;;;23.84;39.91
3748;BME280;1889;50.058;8.688;2022-07-29T07:45:11;100059.16;;;23.73;40.07
3748;BME280;1889;50.058;8.688;2022-07-29T07:47:40;100062.77;;;23.85;40.01
3748;BME280;1889;50.058;8.688;2022-07-29T07:50:11;100066.89;;;24.02;40.00
3748;BME280;1889;50.058;8.688;2022-07-29T07:52:54;100062.47;;;24.19;39.38
3748;BME280;1889;50.058;8.688;2022-07-29T07:55:26;100060.69;;;24.25;38.66
3748;BME280;1889;50.058;8.688;2022-07-29T07:57:55;100065.41;;;24.16;39.00
3748;BME280;1889;50.058;8.688;2022-07-29T08:00:24;100059.08;;;24.46;38.61
3748;BME280;1889;50.058;8.688;2022-07-29T08:02:53;100065.38;;;24.63;38.26
3748;BME280;1889;50.058;8.688;2022-07-29T08:05:22;100060.98;;;24.73;38.26
3748;BME280;1889;50.058;8.688;2022-07-29T08:07:51;100060.12;;;24.73;37.73
3748;BME280;1889;50.058;8.688;2022-07-29T08:10:21;100054.51;;;24.76;37.87
3748;BME280;1889;50.058;8.688;2022-07-29T08:13:08;100055.06;;;24.92;37.97
3748;BME280;1889;50.058;8.688;2022-07-29T08:15:40;100052.14;;;25.06;38.05
3748;BME280;1889;50.058;8.688;2022-07-29T08:18:10;100055.09;;;25.09;37.85
3748;BME280;1889;50.058;8.688;2022-07-29T08:20:39;100049.69;;;25.15;37.70
3748;BME280;1889;50.058;8.688;2022-07-29T08:23:08;100056.92;;;25.03;37.86
3748;BME280;1889;50.058;8.688;2022-07-29T08:25:38;100045.53;;;25.22;37.75
3748;BME280;1889;50.058;8.688;2022-07-29T08:28:07;100055.92;;;24.98;37.71
3748;BME280;1889;50.058;8.688;2022-07-29T08:30:36;100054.25;;;25.20;37.91
3748;BME280;1889;50.058;8.688;2022-07-29T08:33:05;100051.67;;;25.35;37.73
3748;BME280;1889;50.058;8.688;2022-07-29T08:35:34;100056.22;;;25.45;37.63
3748;BME280;1889;50.058;8.688;2022-07-29T08:38:03;100047.99;;;25.41;37.68
3748;BME280;1889;50.058;8.688;2022-07-29T08:40:32;100049.34;;;25.41;37.78
3748;BME280;1889;50.058;8.688;2022-07-29T08:43:06;100052.63;;;25.56;37.58
3748;BME280;1889;50.058;8.688;2022-07-29T08:45:50;100048.22;;;25.55;37.66
3748;BME280;1889;50.058;8.688;2022-07-29T08:48:15;100053.13;;;25.72;37.51
3748;BME280;1889;50.058;8.688;2022-07-29T08:50:46;100044.30;;;25.81;37.25
3748;BME280;1889;50.058;8.688;2022-07-29T08:53:16;100047.22;;;25.90;37.21
3748;BME280;1889;50.058;8.688;2022-07-29T08:55:47;100048.56;;;25.90;37.40
3748;BME280;1889;50.058;8.688;2022-07-29T08:58:17;100047.95;;;25.92;37.34
3748;BME280;1889;50.058;8.688;2022-07-29T09:00:50;100056.95;;;25.70;37.35
3748;BME280;1889;50.058;8.688;2022-07-29T09:03:22;100053.77;;;25.54;37.79
3748;BME280;1889;50.058;8.688;2022-07-29T09:05:51;100055.59;;;25.64;37.88
3748;BME280;1889;50.058;8.688;2022-07-29T09:08:21;100058.17;;;25.66;38.07
3748;BME280;1889;50.058;8.688;2022-07-29T09:10:51;100056.31;;;25.83;38.20
3748;BME280;1889;50.058;8.688;2022-07-29T09:13:21;100050.02;;;25.99;38.02
3748;BME280;1889;50.058;8.688;2022-07-29T09:15:50;100056.95;;;26.13;37.85
3748;BME280;1889;50.058;8.688;2022-07-29T09:18:33;100054.05;;;26.10;37.67
3748;BME280;1889;50.058;8.688;2022-07-29T09:21:04;100048.00;;;26.18;37.71
3748;BME280;1889;50.058;8.688;2022-07-29T09:24:10;100044.94;;;26.17;37.74
3748;BME280;1889;50.058;8.688;2022-07-29T09:26:36;100044.20;;;26.26;37.60
3748;BME280;1889;50.058;8.688;2022-07-29T09:29:14;100044.17;;;26.32;37.69
3748;BME280;1889;50.058;8.688;2022-07-29T09:31:45;100044.87;;;26.39;37.66
3748;BME280;1889;50.058;8.688;2022-07-29T09:34:16;100046.67;;;26.50;37.74
3748;BME280;1889;50.058;8.688;2022-07-29T09:36:48;100041.84;;;26.53;37.92
3748;BME280;1889;50.058;8.688;2022-07-29T09:39:32;100040.45;;;26.65;37.75
3748;BME280;1889;50.058;8.688;2022-07-29T09:42:04;100038.52;;;26.76;37.50
3748;BME280;1889;50.058;8.688;2022-07-29T09:44:44;100037.52;;;26.83;37.63
3748;BME280;1889;50.058;8.688;2022-07-29T09:47:13;100036.38;;;26.85;37.31
3748;BME280;1889;50.058;8.688;2022-07-29T09:49:57;100032.37;;;26.80;37.44
3748;BME280;1889;50.058;8.688;2022-07-29T09:52:28;100030.08;;;26.75;37.45
3748;BME280;1889;50.058;8.688;2022-07-29T09:55:09;100034.45;;;26.82;37.67
3748;BME280;1889;50.058;8.688;2022-07-29T09:57:38;100036.11;;;26.94;37.41
3748;BME280;1889;50.058;8.688;2022-07-29T10:00:15;100026.53;;;26.69;36.96
3748;BME280;1889;50.058;8.688;2022-07-29T10:02:46;100027.03;;;26.48;37.15
3748;BME280;1889;50.058;8.688;2022-07-29T10:05:26;100024.80;;;26.74;37.13
3748;BME280;1889;50.058;8.688;2022-07-29T10:07:58;100029.97;;;26.92;36.96
3748;BME280;1889;50.058;8.688;2022-07-29T10:10:30;100024.91;;;26.99;36.79
3748;BME280;1889;50.058;8.688;2022-07-29T10:13:08;100022.47;;;27.11;36.66
3748;BME280;1889;50.058;8.688;2022-07-29T10:15:35;100019.20;;;27.22;36.33
3748;BME280;1889;50.058;8.688;2022-07-29T10:18:09;100014.76;;;27.37;36.45
3748;BME280;1889;50.058;8.688;2022-07-29T10:20:39;100018.49;;;27.45;35.73
3748;BME280;1889;50.058;8.688;2022-07-29T10:23:09;100014.73;;;27.52;35.72
3748;BME280;1889;50.058;8.688;2022-07-29T10:25:38;100014.57;;;27.59;35.78
3748;BME280;1889;50.058;8.688;2022-07-29T10:28:07;100014.53;;;27.64;35.54
3748;BME280;1889;50.058;8.688;2022-07-29T10:30:38;100014.89;;;27.75;35.77
3748;BME280;1889;50.058;8.688;2022-07-29T10:33:31;100009.73;;;27.87;35.55
3748;BME280;1889;50.058;8.688;2022-07-29T10:36:13;100012.59;;;27.95;35.48
3748;BME280;1889;50.058;8.688;2022-07-29T10:38:44;100014.29;;;28.06;35.11
3748;BME280;1889;50.058;8.688;2022-07-29T10:41:26;100002.61;;;28.05;35.10
3748;BME280;1889;50.058;8.688;2022-07-29T10:44:02;100003.05;;;28.10;34.99
3748;BME280;1889;50.058;8.688;2022-07-29T10:46:36;100005.77;;;28.10;34.98
3748;BME280;1889;50.058;8.688;2022-07-29T10:49:11;100004.40;;;28.01;35.03
3748;BME280;1889;50.058;8.688;2022-07-29T10:51:53;100004.91;;;28.10;35.31
3748;BME280;1889;50.058;8.688;2022-07-29T10:54:48;100006.62;;;27.67;35.17
3748;BME280;1889;50.058;8.688;2022-07-29T10:57:29;99999.83;;;27.57;35.52
3748;BME280;1889;50.058;8.688;2022-07-29T11:02:44;100000.32;;;27.57;35.33
3748;BME280;1889;50.058;8.688;2022-07-29T11:05:17;99994.80;;;27.68;35.48
3748;BME280;1889;50.058;8.688;2022-07-29T11:10:37;99988.43;;;27.98;35.49
3748;BME280;1889;50.058;8.688;2022-07-29T11:13:06;99991.73;;;28.11;35.37
3748;BME280;1889;50.058;8.688;2022-07-29T11:15:54;99989.75;;;28.23;35.12
3748;BME280;1889;50.058;8.688;2022-07-29T11:18:23;99988.04;;;28.31;35.12
3748;BME280;1889;50.058;8.688;2022-07-29T11:20:52;99978.92;;;28.23;34.97
3748;BME280;1889;50.058;8.688;2022-07-29T11:23:32;99982.34;;;28.25;34.77
3748;BME280;1889;50.058;8.688;2022-07-29T11:31:37;99983.00;;;28.65;34.78
3748;BME280;1889;50.058;8.688;2022-07-29T11:39:45;99980.17;;;28.57;34.22
3748;BME280;1889;50.058;8.688;2022-07-29T11:47:29;99978.06;;;29.07;34.35
3748;BME280;1889;50.058;8.688;2022-07-29T11:49:59;99975.49;;;29.06;33.36
3748;BME280;1889;50.058;8.688;2022-07-29T11:52:37;99977.60;;;29.12;33.33
3748;BME280;1889;50.058;8.688;2022-07-29T11:55:08;99967.46;;;29.28;33.28
3748;BME280;1889;50.058;8.688;2022-07-29T11:57:44;99968.93;;;29.22;33.18
3748;BME280;1889;50.058;8.688;2022-07-29T12:00:09;99971.35;;;29.25;33.55
3748;BME280;1889;50.058;8.688;2022-07-29T12:02:43;99965.34;;;29.45;33.54
3748;BME280;1889;50.058;8.688;2022-07-29T12:05:12;99956.70;;;29.45;33.12
3748;BME280;1889;50.058;8.688;2022-07-29T12:07:41;99956.70;;;29.45;32.96
3748;BME280;1889;50.058;8.688;2022-07-29T12:10:11;99951.37;;;29.67;32.89
3748;BME280;1889;50.058;8.688;2022-07-29T12:12:40;99948.98;;;29.86;33.12
3748;BME280;1889;50.058;8.688;2022-07-29T12:15:16;99953.83;;;29.78;32.46
3748;BME280;1889;50.058;8.688;2022-07-29T12:17:48;99946.32;;;29.72;32.71
3748;BME280;1889;50.058;8.688;2022-07-29T12:20:25;99951.31;;;29.94;32.52
3748;BME280;1889;50.058;8.688;2022-07-29T12:22:55;99945.88;;;29.94;32.34
3748;BME280;1889;50.058;8.688;2022-07-29T12:25:24;99945.68;;;30.10;32.41
3748;BME280;1889;50.058;8.688;2022-07-29T12:27:59;99939.31;;;30.19;32.71
3748;BME280;1889;50.058;8.688;2022-07-29T12:30:40;99937.14;;;30.44;32.54
3748;BME280;1889;50.058;8.688;2022-07-29T12:33:23;99942.36;;;30.38;31.86
3748;BME280;1889;50.058;8.688;2022-07-29T12:36:00;99937.59;;;30.57;32.21
3748;BME280;1889;50.058;8.688;2022-07-29T12:38:29;99928.26;;;30.86;32.24
3748;BME280;1889;50.058;8.688;2022-07-29T12:40:59;99923.48;;;30.80;31.10
3748;BME280;1889;50.058;8.688;2022-07-29T12:43:28;99914.42;;;31.05;31.75
3748;BME280;1889;50.058;8.688;2022-07-29T12:45:57;99921.95;;;31.11;31.69
3748;BME280;1889;50.058;8.688;2022-07-29T12:48:34;99920.02;;;31.41;31.22
3748;BME280;1889;50.058;8.688;2022-07-29T12:51:04;99913.44;;;31.60;31.07
3748;BME280;1889;50.058;8.688;2022-07-29T12:53:35;99900.20;;;31.65;30.93
3748;BME280;1889;50.058;8.688;2022-07-29T12:56:06;99901.09;;;31.86;31.01
3748;BME280;1889;50.058;8.688;2022-07-29T12:58:40;99903.00;;;32.18;30.45
3748;BME280;1889;50.058;8.688;2022-07-29T13:01:14;99904.64;;;32.03;29.90
3748;BME280;1889;50.058;8.688;2022-07-29T13:03:49;99897.31;;;31.67;30.23
3748;BME280;1889;50.058;8.688;2022-07-29T13:06:38;99895.94;;;31.71;29.86
3748;BME280;1889;50.058;8.688;2022-07-29T13:11:40;99900.39;;;32.04;29.40
3748;BME280;1889;50.058;8.688;2022-07-29T13:14:30;99896.14;;;31.77;29.36
3748;BME280;1889;50.058;8.688;2022-07-29T13:17:22;99898.84;;;31.73;29.73
3748;BME280;1889;50.058;8.688;2022-07-29T13:22:05;99904.02;;;31.34;30.27
3748;BME280;1889;50.058;8.688;2022-07-29T13:24:44;99913.45;;;31.14;30.38
3748;BME280;1889;50.058;8.688;2022-07-29T13:27:04;99908.01;;;31.14;30.23
3748;BME280;1889;50.058;8.688;2022-07-29T13:29:33;99906.55;;;30.94;30.53
3748;BME280;1889;50.058;8.688;2022-07-29T13:32:03;99906.74;;;31.00;30.59
3748;BME280;1889;50.058;8.688;2022-07-29T13:34:32;99904.30;;;30.89;30.61
3748;BME280;1889;50.058;8.688;2022-07-29T13:37:01;99903.83;;;30.94;30.75
3748;BME280;1889;50.058;8.688;2022-07-29T13:39:30;99894.50;;;30.96;30.52
3748;BME280;1889;50.058;8.688;2022-07-29T13:41:59;99894.42;;;30.80;30.65
3748;BME280;1889;50.058;8.688;2022-07-29T13:44:28;99899.54;;;30.57;31.04
3748;BME280;1889;50.058;8.688;2022-07-29T13:46:57;99892.73;;;30.53;31.12
3748;BME280;1889;50.058;8.688;2022-07-29T13:49:29;99895.63;;;30.34;31.16
3748;BME280;1889;50.058;8.688;2022-07-29T13:51:58;99893.25;;;30.35;31.22
3748;BME280;1889;50.058;8.688;2022-07-29T13:54:27;99888.83;;;30.34;31.36
3748;BME280;1889;50.058;8.688;2022-07-29T13:56:56;99893.59;;;30.32;31.00
3748;BME280;1889;50.058;8.688;2022-07-29T13:59:25;99899.98;;;30.23;31.45
3748;BME280;1889;50.058;8.688;2022-07-29T14:01:54;99909.18;;;29.90;31.71
3748;BME280;1889;50.058;8.688;2022-07-29T14:04:23;99900.13;;;30.00;31.74
3748;BME280;1889;50.058;8.688;2022-07-29T14:06:52;99900.78;;;29.84;31.79
3748;BME280;1889;50.058;8.688;2022-07-29T14:09:21;99899.84;;;29.93;31.87
3748;BME280;1889;50.058;8.688;2022-07-29T14:11:50;99896.78;;;30.06;32.23
3748;BME280;1889;50.058;8.688;2022-07-29T14:14:20;99890.52;;;30.09;31.95
3748;BME280;1889;50.058;8.688;2022-07-29T14:16:49;99892.05;;;30.08;32.35